sensor_id;sensor_type;location;lat;lon;timestamp;P1;durP1;ratioP1;P2;durP2;ratioP2
20397;SDS011;10358;49.590;11.030;2023-08-06T00:00:06;11.50;;;8.05;;
20397;SDS011;10358;49.590;11.030;2023-08-06T00:02:33;12.70;;;8.35;;
20397;SDS011;10358;49.590;11.030;2023-08-06T00:04:59;11.00;;;8.00;;
20397;SDS011;10358;49.590;11.030;2023-08-06T00:07:24;12.07;;;7.93;;
20397;SDS011;10358;49.590;11.030;2023-08-06T00:09:50;9.50;;;7.07;;
20397;SDS011;10358;49.590;11.030;2023-08-06T00:12:15;10.75;;;7.05;;
20397;SDS011;10358;49.590;11.030;2023-08-06T00:14:41;8.77;;;6.35;;
20397;SDS011;10358;49.590;11.030;2023-08-06T00:17:07;8.02;;;5.60;;
20397;SDS011;10358;49.590;11.030;2023-08-06T00:19:33;7.15;;;5.13;;
20397;SDS011;10358;49.590;11.030;2023-08-06T00:21:58;7.25;;;5.22;;
20397;SDS011;10358;49.590;11.030;2023-08-06T00:24:24;7.40;;;5.38;;
20397;SDS011;10358;49.590;11.030;2023-08-06T00:26:49;9.48;;;5.88;;
20397;SDS011;10358;49.590;11.030;2023-08-06T00:29:15;6.45;;;5.30;;
20397;SDS011;10358;49.590;11.030;2023-08-06T00:31:41;6.82;;;4.78;;
20397;SDS011;10358;49.590;11.030;2023-08-06T00:34:06;8.85;;;4.95;;
20397;SDS011;10358;49.590;11.030;2023-08-06T00:36:32;8.02;;;5.28;;
20397;SDS011;10358;49.590;11.030;2023-08-06T00:38:57;5.65;;;4.75;;
20397;SDS011;10358;49.590;11.030;2023-08-06T00:41:23;5.75;;;4.78;;
20397;SDS011;10358;49.590;11.030;2023-08-06T00:43:48;6.88;;;4.88;;
20397;SDS011;10358;49.590;11.030;2023-08-06T00:46:14;7.50;;;4.53;;
20397;SDS011;10358;49.590;11.030;2023-08-06T00:48:40;5.72;;;4.60;;
20397;SDS011;10358;49.590;11.030;2023-08-06T00:51:07;7.28;;;4.75;;
20397;SDS011;10358;49.590;11.030;2023-08-06T00:53:34;7.15;;;4.97;;
20397;SDS011;10358;49.590;11.030;2023-08-06T00:56:00;6.78;;;5.30;;
20397;SDS011;10358;49.590;11.030;2023-08-06T00:58:27;6.03;;;4.95;;
20397;SDS011;10358;49.590;11.030;2023-08-06T01:00:52;6.00;;;4.30;;
20397;SDS011;10358;49.590;11.030;2023-08-06T01:03:18;4.82;;;4.20;;
20397;SDS011;10358;49.590;11.030;2023-08-06T01:05:44;6.25;;;4.35;;
20397;SDS011;10358;49.590;11.030;2023-08-06T01:13:47;8.07;;;4.18;;
20397;SDS011;10358;49.590;11.030;2023-08-06T01:16:15;7.38;;;4.60;;
20397;SDS011;10358;49.590;11.030;2023-08-06T01:18:42;7.63;;;4.82;;
20397;SDS011;10358;49.590;11.030;2023-08-06T01:21:11;5.85;;;4.70;;
20397;SDS011;10358;49.590;11.030;2023-08-06T01:23:41;5.43;;;4.38;;
20397;SDS011;10358;49.590;11.030;2023-08-06T01:31:32;6.63;;;4.60;;
20397;SDS011;10358;49.590;11.030;2023-08-06T01:34:03;5.38;;;4.25;;
20397;SDS011;10358;49.590;11.030;2023-08-06T01:36:32;4.32;;;3.55;;
20397;SDS011;10358;49.590;11.030;2023-08-06T01:38:58;5.93;;;3.75;;
20397;SDS011;10358;49.590;11.030;2023-08-06T01:41:24;5.13;;;3.40;;
20397;SDS011;10358;49.590;11.030;2023-08-06T01:43:50;7.18;;;3.80;;
20397;SDS011;10358;49.590;11.030;2023-08-06T01:46:15;5.60;;;3.55;;
20397;SDS011;10358;49.590;11.030;2023-08-06T01:48:41;5.70;;;3.38;;
20397;SDS011;10358;49.590;11.030;2023-08-06T01:51:07;4.70;;;3.65;;
20397;SDS011;10358;49.590;11.030;2023-08-06T01:53:33;6.07;;;3.25;;
20397;SDS011;10358;49.590;11.030;2023-08-06T01:55:59;4.55;;;3.30;;
20397;SDS011;10358;49.590;11.030;2023-08-06T01:58:24;5.75;;;3.50;;
20397;SDS011;10358;49.590;11.030;2023-08-06T02:00:50;4.63;;;3.10;;
20397;SDS011;10358;49.590;11.030;2023-08-06T02:03:15;4.28;;;3.10;;
20397;SDS011;10358;49.590;11.030;2023-08-06T02:05:41;6.60;;;3.20;;
20397;SDS011;10358;49.590;11.030;2023-08-06T02:08:07;4.22;;;3.03;;
20397;SDS011;10358;49.590;11.030;2023-08-06T02:10:33;4.25;;;3.42;;
20397;SDS011;10358;49.590;11.030;2023-08-06T02:12:58;4.30;;;3.65;;
20397;SDS011;10358;49.590;11.030;2023-08-06T02:15:24;7.82;;;3.90;;
20397;SDS011;10358;49.590;11.030;2023-08-06T02:17:49;4.75;;;3.50;;
20397;SDS011;10358;49.590;11.030;2023-08-06T02:20:15;5.28;;;3.25;;
20397;SDS011;10358;49.590;11.030;2023-08-06T02:22:41;5.05;;;3.42;;
20397;SDS011;10358;49.590;11.030;2023-08-06T02:28:28;5.38;;;3.53;;
20397;SDS011;10358;49.590;11.030;2023-08-06T02:30:55;5.28;;;3.83;;
20397;SDS011;10358;49.590;11.030;2023-08-06T02:33:21;4.88;;;3.30;;
20397;SDS011;10358;49.590;11.030;2023-08-06T02:35:46;4.85;;;3.78;;
20397;SDS011;10358;49.590;11.030;2023-08-06T02:38:12;4.60;;;3.28;;
20397;SDS011;10358;49.590;11.030;2023-08-06T02:40:42;4.80;;;3.30;;
20397;SDS011;10358;49.590;11.030;2023-08-06T02:43:09;4.95;;;3.75;;
20397;SDS011;10358;49.590;11.030;2023-08-06T02:45:35;7.00;;;3.30;;
20397;SDS011;10358;49.590;11.030;2023-08-06T02:48:00;6.35;;;3.97;;
20397;SDS011;10358;49.590;11.030;2023-08-06T02:50:27;8.23;;;4.53;;
20397;SDS011;10358;49.590;11.030;2023-08-06T02:52:52;7.13;;;4.13;;
20397;SDS011;10358;49.590;11.030;2023-08-06T02:55:18;5.43;;;3.80;;
20397;SDS011;10358;49.590;11.030;2023-08-06T02:57:43;5.60;;;3.80;;
20397;SDS011;10358;49.590;11.030;2023-08-06T03:00:09;5.63;;;3.30;;
20397;SDS011;10358;49.590;11.030;2023-08-06T03:02:36;4.65;;;3.45;;
20397;SDS011;10358;49.590;11.030;2023-08-06T03:05:02;5.35;;;3.38;;
20397;SDS011;10358;49.590;11.030;2023-08-06T03:07:28;5.75;;;3.38;;
20397;SDS011;10358;49.590;11.030;2023-08-06T03:09:54;4.35;;;3.60;;
20397;SDS011;10358;49.590;11.030;2023-08-06T03:12:19;5.38;;;3.05;;
20397;SDS011;10358;49.590;11.030;2023-08-06T03:14:45;9.10;;;3.30;;
20397;SDS011;10358;49.590;11.030;2023-08-06T03:17:11;6.68;;;3.20;;
20397;SDS011;10358;49.590;11.030;2023-08-06T03:19:36;4.82;;;3.08;;
20397;SDS011;10358;49.590;11.030;2023-08-06T03:22:02;4.43;;;3.00;;
20397;SDS011;10358;49.590;11.030;2023-08-06T03:24:27;6.00;;;3.55;;
20397;SDS011;10358;49.590;11.030;2023-08-06T03:26:53;5.32;;;2.90;;
20397;SDS011;10358;49.590;11.030;2023-08-06T03:29:18;7.50;;;3.42;;
20397;SDS011;10358;49.590;11.030;2023-08-06T03:31:45;7.22;;;3.40;;
20397;SDS011;10358;49.590;11.030;2023-08-06T03:34:10;6.53;;;3.50;;
20397;SDS011;10358;49.590;11.030;2023-08-06T03:36:36;5.25;;;3.25;;
20397;SDS011;10358;49.590;11.030;2023-08-06T03:39:01;4.57;;;3.25;;
20397;SDS011;10358;49.590;11.030;2023-08-06T03:41:27;4.20;;;3.10;;
20397;SDS011;10358;49.590;11.030;2023-08-06T03:43:52;7.22;;;3.40;;
20397;SDS011;10358;49.590;11.030;2023-08-06T03:46:18;7.88;;;3.25;;
20397;SDS011;10358;49.590;11.030;2023-08-06T03:48:43;6.40;;;3.25;;
20397;SDS011;10358;49.590;11.030;2023-08-06T03:51:09;4.63;;;3.60;;
20397;SDS011;10358;49.590;11.030;2023-08-06T03:53:34;6.82;;;3.22;;
20397;SDS011;10358;49.590;11.030;2023-08-06T03:56:00;7.65;;;3.30;;
20397;SDS011;10358;49.590;11.030;2023-08-06T03:58:26;4.80;;;3.05;;
20397;SDS011;10358;49.590;11.030;2023-08-06T04:00:58;7.22;;;3.55;;
20397;SDS011;10358;49.590;11.030;2023-08-06T04:03:28;11.05;;;3.20;;
20397;SDS011;10358;49.590;11.030;2023-08-06T04:05:54;4.40;;;3.17;;
20397;SDS011;10358;49.590;11.030;2023-08-06T04:08:19;7.40;;;3.17;;
20397;SDS011;10358;49.590;11.030;2023-08-06T04:10:48;6.57;;;3.33;;
20397;SDS011;10358;49.590;11.030;2023-08-06T04:13:14;6.00;;;3.38;;
20397;SDS011;10358;49.590;11.030;2023-08-06T04:15:40;5.60;;;3.50;;
20397;SDS011;10358;49.590;11.030;2023-08-06T04:18:05;5.05;;;3.97;;
20397;SDS011;10358;49.590;11.030;2023-08-06T04:20:31;5.32;;;3.15;;
20397;SDS011;10358;49.590;11.030;2023-08-06T04:22:56;6.18;;;3.65;;
20397;SDS011;10358;49.590;11.030;2023-08-06T04:25:22;6.63;;;3.58;;
20397;SDS011;10358;49.590;11.030;2023-08-06T04:27:48;9.98;;;4.45;;
20397;SDS011;10358;49.590;11.030;2023-08-06T04:30:14;7.10;;;4.00;;
20397;SDS011;10358;49.590;11.030;2023-08-06T04:32:39;7.97;;;3.13;;
20397;SDS011;10358;49.590;11.030;2023-08-06T04:35:05;6.97;;;3.65;;
20397;SDS011;10358;49.590;11.030;2023-08-06T04:37:31;4.68;;;3.88;;
20397;SDS011;10358;49.590;11.030;2023-08-06T04:39:56;6.03;;;3.63;;
20397;SDS011;10358;49.590;11.030;2023-08-06T04:42:22;4.93;;;3.42;;
20397;SDS011;10358;49.590;11.030;2023-08-06T04:44:48;9.57;;;3.50;;
20397;SDS011;10358;49.590;11.030;2023-08-06T04:47:13;5.25;;;3.70;;
20397;SDS011;10358;49.590;11.030;2023-08-06T04:49:39;5.35;;;3.47;;
20397;SDS011;10358;49.590;11.030;2023-08-06T04:52:04;7.63;;;4.07;;
20397;SDS011;10358;49.590;11.030;2023-08-06T04:54:30;3.92;;;3.53;;
20397;SDS011;10358;49.590;11.030;2023-08-06T04:56:56;7.22;;;4.20;;
20397;SDS011;10358;49.590;11.030;2023-08-06T04:59:21;9.73;;;4.18;;
20397;SDS011;10358;49.590;11.030;2023-08-06T05:01:47;7.20;;;3.70;;
20397;SDS011;10358;49.590;11.030;2023-08-06T05:04:13;6.63;;;4.20;;
20397;SDS011;10358;49.590;11.030;2023-08-06T05:06:38;7.65;;;4.00;;
20397;SDS011;10358;49.590;11.030;2023-08-06T05:09:04;8.63;;;4.00;;
20397;SDS011;10358;49.590;11.030;2023-08-06T05:11:31;7.97;;;4.20;;
20397;SDS011;10358;49.590;11.030;2023-08-06T05:13:56;8.35;;;4.18;;
20397;SDS011;10358;49.590;11.030;2023-08-06T05:16:23;6.20;;;3.88;;
20397;SDS011;10358;49.590;11.030;2023-08-06T05:18:49;6.55;;;3.97;;
20397;SDS011;10358;49.590;11.030;2023-08-06T05:21:14;5.18;;;3.40;;
20397;SDS011;10358;49.590;11.030;2023-08-06T05:23:41;4.82;;;4.03;;
20397;SDS011;10358;49.590;11.030;2023-08-06T05:26:07;7.90;;;3.97;;
20397;SDS011;10358;49.590;11.030;2023-08-06T05:28:32;7.00;;;4.05;;
20397;SDS011;10358;49.590;11.030;2023-08-06T05:30:59;7.13;;;3.80;;
20397;SDS011;10358;49.590;11.030;2023-08-06T05:33:28;6.20;;;4.07;;
20397;SDS011;10358;49.590;11.030;2023-08-06T05:35:53;6.13;;;3.72;;
20397;SDS011;10358;49.590;11.030;2023-08-06T05:38:19;10.40;;;4.07;;
20397;SDS011;10358;49.590;11.030;2023-08-06T05:40:44;6.57;;;3.92;;
20397;SDS011;10358;49.590;11.030;2023-08-06T05:43:10;6.40;;;3.80;;
20397;SDS011;10358;49.590;11.030;2023-08-06T05:45:36;5.75;;;3.30;;
20397;SDS011;10358;49.590;11.030;2023-08-06T05:48:01;4.95;;;3.72;;
20397;SDS011;10358;49.590;11.030;2023-08-06T05:50:27;6.40;;;3.80;;
20397;SDS011;10358;49.590;11.030;2023-08-06T05:52:52;6.18;;;3.80;;
20397;SDS011;10358;49.590;11.030;2023-08-06T05:55:18;4.60;;;3.67;;
20397;SDS011;10358;49.590;11.030;2023-08-06T05:57:45;6.50;;;3.58;;
20397;SDS011;10358;49.590;11.030;2023-08-06T06:00:10;4.85;;;3.47;;
20397;SDS011;10358;49.590;11.030;2023-08-06T06:02:36;5.13;;;3.80;;
20397;SDS011;10358;49.590;11.030;2023-08-06T06:05:02;8.70;;;4.20;;
20397;SDS011;10358;49.590;11.030;2023-08-06T06:07:28;9.63;;;3.85;;
20397;SDS011;10358;49.590;11.030;2023-08-06T06:09:53;4.10;;;3.42;;
20397;SDS011;10358;49.590;11.030;2023-08-06T06:12:19;4.65;;;3.60;;
20397;SDS011;10358;49.590;11.030;2023-08-06T06:14:44;5.88;;;3.58;;
20397;SDS011;10358;49.590;11.030;2023-08-06T06:17:10;4.22;;;3.28;;
20397;SDS011;10358;49.590;11.030;2023-08-06T06:19:35;5.70;;;3.03;;
20397;SDS011;10358;49.590;11.030;2023-08-06T06:22:01;5.07;;;3.30;;
20397;SDS011;10358;49.590;11.030;2023-08-06T06:24:27;7.22;;;3.50;;
20397;SDS011;10358;49.590;11.030;2023-08-06T06:26:52;4.30;;;3.50;;
20397;SDS011;10358;49.590;11.030;2023-08-06T06:29:18;3.67;;;3.17;;
20397;SDS011;10358;49.590;11.030;2023-08-06T06:31:43;3.95;;;3.22;;
20397;SDS011;10358;49.590;11.030;2023-08-06T06:34:09;5.88;;;3.35;;
20397;SDS011;10358;49.590;11.030;2023-08-06T06:36:34;5.25;;;3.35;;
20397;SDS011;10358;49.590;11.030;2023-08-06T06:39:00;4.22;;;3.53;;
20397;SDS011;10358;49.590;11.030;2023-08-06T06:41:25;5.25;;;3.50;;
20397;SDS011;10358;49.590;11.030;2023-08-06T06:43:51;7.13;;;3.20;;
20397;SDS011;10358;49.590;11.030;2023-08-06T06:46:17;6.93;;;3.50;;
20397;SDS011;10358;49.590;11.030;2023-08-06T06:48:42;7.57;;;3.40;;
20397;SDS011;10358;49.590;11.030;2023-08-06T06:51:08;3.97;;;3.00;;
20397;SDS011;10358;49.590;11.030;2023-08-06T06:53:33;5.60;;;3.10;;
20397;SDS011;10358;49.590;11.030;2023-08-06T06:56:02;5.63;;;2.92;;
20397;SDS011;10358;49.590;11.030;2023-08-06T06:58:29;9.48;;;3.72;;
20397;SDS011;10358;49.590;11.030;2023-08-06T07:00:55;4.97;;;3.15;;
20397;SDS011;10358;49.590;11.030;2023-08-06T07:03:21;4.78;;;3.20;;
20397;SDS011;10358;49.590;11.030;2023-08-06T07:05:47;4.80;;;3.35;;
20397;SDS011;10358;49.590;11.030;2023-08-06T07:08:12;6.80;;;2.92;;
20397;SDS011;10358;49.590;11.030;2023-08-06T07:10:40;8.13;;;3.35;;
20397;SDS011;10358;49.590;11.030;2023-08-06T07:13:06;5.40;;;3.08;;
20397;SDS011;10358;49.590;11.030;2023-08-06T07:15:31;4.05;;;3.50;;
20397;SDS011;10358;49.590;11.030;2023-08-06T07:17:57;5.65;;;2.83;;
20397;SDS011;10358;49.590;11.030;2023-08-06T07:20:23;5.97;;;3.30;;
20397;SDS011;10358;49.590;11.030;2023-08-06T07:22:48;4.82;;;3.20;;
20397;SDS011;10358;49.590;11.030;2023-08-06T07:25:15;5.22;;;3.30;;
20397;SDS011;10358;49.590;11.030;2023-08-06T07:27:41;4.28;;;3.22;;
20397;SDS011;10358;49.590;11.030;2023-08-06T07:30:06;5.18;;;2.97;;
20397;SDS011;10358;49.590;11.030;2023-08-06T07:32:33;8.00;;;3.20;;
20397;SDS011;10358;49.590;11.030;2023-08-06T07:34:58;8.30;;;3.30;;
20397;SDS011;10358;49.590;11.030;2023-08-06T07:37:26;5.35;;;3.22;;
20397;SDS011;10358;49.590;11.030;2023-08-06T07:39:55;3.50;;;2.65;;
20397;SDS011;10358;49.590;11.030;2023-08-06T07:42:21;6.68;;;2.80;;
20397;SDS011;10358;49.590;11.030;2023-08-06T07:44:57;6.32;;;2.90;;
20397;SDS011;10358;49.590;11.030;2023-08-06T07:47:23;4.72;;;2.80;;
20397;SDS011;10358;49.590;11.030;2023-08-06T07:49:49;5.18;;;2.90;;
20397;SDS011;10358;49.590;11.030;2023-08-06T07:52:15;3.97;;;2.85;;
20397;SDS011;10358;49.590;11.030;2023-08-06T07:54:40;7.22;;;2.88;;
20397;SDS011;10358;49.590;11.030;2023-08-06T07:57:06;3.42;;;2.75;;
20397;SDS011;10358;49.590;11.030;2023-08-06T07:59:31;4.50;;;2.95;;
20397;SDS011;10358;49.590;11.030;2023-08-06T08:01:57;5.55;;;2.92;;
20397;SDS011;10358;49.590;11.030;2023-08-06T08:04:23;5.93;;;3.00;;
20397;SDS011;10358;49.590;11.030;2023-08-06T08:06:49;5.03;;;2.60;;
20397;SDS011;10358;49.590;11.030;2023-08-06T08:09:14;3.00;;;2.53;;
20397;SDS011;10358;49.590;11.030;2023-08-06T08:11:40;5.93;;;2.50;;
20397;SDS011;10358;49.590;11.030;2023-08-06T08:14:06;2.75;;;1.95;;
20397;SDS011;10358;49.590;11.030;2023-08-06T08:16:32;4.95;;;1.58;;
20397;SDS011;10358;49.590;11.030;2023-08-06T08:18:57;2.67;;;1.40;;
20397;SDS011;10358;49.590;11.030;2023-08-06T08:21:23;2.30;;;1.40;;
20397;SDS011;10358;49.590;11.030;2023-08-06T08:23:51;4.10;;;1.20;;
20397;SDS011;10358;49.590;11.030;2023-08-06T08:26:17;3.40;;;1.23;;
20397;SDS011;10358;49.590;11.030;2023-08-06T08:28:43;1.73;;;1.02;;
20397;SDS011;10358;49.590;11.030;2023-08-06T08:31:09;3.67;;;0.95;;
20397;SDS011;10358;49.590;11.030;2023-08-06T08:33:36;1.23;;;0.80;;
20397;SDS011;10358;49.590;11.030;2023-08-06T08:36:04;1.02;;;0.80;;
20397;SDS011;10358;49.590;11.030;2023-08-06T08:38:30;1.63;;;0.90;;
20397;SDS011;10358;49.590;11.030;2023-08-06T08:40:55;1.25;;;0.85;;
20397;SDS011;10358;49.590;11.030;2023-08-06T08:43:21;0.80;;;0.80;;
20397;SDS011;10358;49.590;11.030;2023-08-06T08:45:50;1.08;;;0.60;;
20397;SDS011;10358;49.590;11.030;2023-08-06T08:48:17;1.48;;;0.60;;
20397;SDS011;10358;49.590;11.030;2023-08-06T08:50:44;0.68;;;0.60;;
20397;SDS011;10358;49.590;11.030;2023-08-06T08:53:15;1.02;;;0.65;;
20397;SDS011;10358;49.590;11.030;2023-08-06T08:55:47;1.08;;;0.52;;
20397;SDS011;10358;49.590;11.030;2023-08-06T08:58:14;1.40;;;0.70;;
20397;SDS011;10358;49.590;11.030;2023-08-06T09:00:43;1.65;;;0.70;;
20397;SDS011;10358;49.590;11.030;2023-08-06T09:03:11;1.23;;;0.60;;
20397;SDS011;10358;49.590;11.030;2023-08-06T09:05:37;0.73;;;0.60;;
20397;SDS011;10358;49.590;11.030;2023-08-06T09:08:08;1.02;;;0.70;;
20397;SDS011;10358;49.590;11.030;2023-08-06T09:10:40;0.80;;;0.50;;
20397;SDS011;10358;49.590;11.030;2023-08-06T09:13:06;1.00;;;0.68;;
20397;SDS011;10358;49.590;11.030;2023-08-06T09:15:33;1.00;;;0.70;;
20397;SDS011;10358;49.590;11.030;2023-08-06T09:17:59;1.38;;;0.70;;
20397;SDS011;10358;49.590;11.030;2023-08-06T09:20:25;1.13;;;0.57;;
20397;SDS011;10358;49.590;11.030;2023-08-06T09:22:53;2.65;;;0.57;;
20397;SDS011;10358;49.590;11.030;2023-08-06T09:25:22;1.27;;;0.50;;
20397;SDS011;10358;49.590;11.030;2023-08-06T09:27:53;1.15;;;0.30;;
20397;SDS011;10358;49.590;11.030;2023-08-06T09:30:31;0.32;;;0.30;;
20397;SDS011;10358;49.590;11.030;2023-08-06T09:33:09;1.30;;;0.57;;
20397;SDS011;10358;49.590;11.030;2023-08-06T09:35:40;0.90;;;0.32;;
20397;SDS011;10358;49.590;11.030;2023-08-06T09:38:06;1.38;;;0.52;;
20397;SDS011;10358;49.590;11.030;2023-08-06T09:40:33;0.52;;;0.43;;
20397;SDS011;10358;49.590;11.030;2023-08-06T09:42:59;0.80;;;0.40;;
20397;SDS011;10358;49.590;11.030;2023-08-06T09:45:34;0.85;;;0.50;;
20397;SDS011;10358;49.590;11.030;2023-08-06T09:48:04;3.67;;;0.50;;
20397;SDS011;10358;49.590;11.030;2023-08-06T09:50:32;0.30;;;0.30;;
20397;SDS011;10358;49.590;11.030;2023-08-06T09:53:03;0.47;;;0.40;;
20397;SDS011;10358;49.590;11.030;2023-08-06T09:55:30;0.95;;;0.60;;
20397;SDS011;10358;49.590;11.030;2023-08-06T09:57:58;0.70;;;0.50;;
20397;SDS011;10358;49.590;11.030;2023-08-06T10:00:24;0.40;;;0.40;;
20397;SDS011;10358;49.590;11.030;2023-08-06T10:02:51;0.90;;;0.40;;
20397;SDS011;10358;49.590;11.030;2023-08-06T10:05:21;1.20;;;0.52;;
20397;SDS011;10358;49.590;11.030;2023-08-06T10:07:47;0.93;;;0.55;;
20397;SDS011;10358;49.590;11.030;2023-08-06T10:10:15;1.00;;;0.50;;
20397;SDS011;10358;49.590;11.030;2023-08-06T10:12:48;0.50;;;0.40;;
20397;SDS011;10358;49.590;11.030;2023-08-06T10:15:17;0.55;;;0.28;;
20397;SDS011;10358;49.590;11.030;2023-08-06T10:17:55;3.13;;;0.40;;
20397;SDS011;10358;49.590;11.030;2023-08-06T10:20:22;0.75;;;0.50;;
20397;SDS011;10358;49.590;11.030;2023-08-06T10:23:04;0.80;;;0.50;;
20397;SDS011;10358;49.590;11.030;2023-08-06T10:25:32;0.93;;;0.50;;
20397;SDS011;10358;49.590;11.030;2023-08-06T10:28:09;0.38;;;0.38;;
20397;SDS011;10358;49.590;11.030;2023-08-06T10:30:43;0.93;;;0.55;;
20397;SDS011;10358;49.590;11.030;2023-08-06T10:33:10;0.60;;;0.52;;
20397;SDS011;10358;49.590;11.030;2023-08-06T10:40:42;0.60;;;0.50;;
20397;SDS011;10358;49.590;11.030;2023-08-06T10:43:26;1.95;;;0.40;;
20397;SDS011;10358;49.590;11.030;2023-08-06T10:45:54;0.38;;;0.30;;
20397;SDS011;10358;49.590;11.030;2023-08-06T10:51:01;0.50;;;0.50;;
20397;SDS011;10358;49.590;11.030;2023-08-06T10:53:28;0.47;;;0.40;;
20397;SDS011;10358;49.590;11.030;2023-08-06T10:55:54;2.90;;;0.40;;
20397;SDS011;10358;49.590;11.030;2023-08-06T10:58:19;0.68;;;0.50;;
20397;SDS011;10358;49.590;11.030;2023-08-06T11:00:47;0.60;;;0.50;;
20397;SDS011;10358;49.590;11.030;2023-08-06T11:03:14;0.63;;;0.60;;
20397;SDS011;10358;49.590;11.030;2023-08-06T11:05:40;0.40;;;0.40;;
20397;SDS011;10358;49.590;11.030;2023-08-06T11:08:05;0.43;;;0.43;;
20397;SDS011;10358;49.590;11.030;2023-08-06T11:10:32;0.65;;;0.30;;
20397;SDS011;10358;49.590;11.030;2023-08-06T11:13:02;1.90;;;0.40;;
20397;SDS011;10358;49.590;11.030;2023-08-06T11:15:29;0.40;;;0.40;;
20397;SDS011;10358;49.590;11.030;2023-08-06T11:17:55;0.70;;;0.50;;
20397;SDS011;10358;49.590;11.030;2023-08-06T11:20:21;1.23;;;0.50;;
20397;SDS011;10358;49.590;11.030;2023-08-06T11:22:49;1.48;;;0.40;;
20397;SDS011;10358;49.590;11.030;2023-08-06T11:25:15;1.40;;;0.57;;
20397;SDS011;10358;49.590;11.030;2023-08-06T11:27:41;1.17;;;0.25;;
20397;SDS011;10358;49.590;11.030;2023-08-06T11:30:07;0.43;;;0.43;;
20397;SDS011;10358;49.590;11.030;2023-08-06T11:32:32;0.75;;;0.52;;
20397;SDS011;10358;49.590;11.030;2023-08-06T11:35:08;0.90;;;0.55;;
20397;SDS011;10358;49.590;11.030;2023-08-06T11:37:34;0.40;;;0.40;;
20397;SDS011;10358;49.590;11.030;2023-08-06T11:40:02;0.32;;;0.32;;
20397;SDS011;10358;49.590;11.030;2023-08-06T11:42:36;0.43;;;0.43;;
20397;SDS011;10358;49.590;11.030;2023-08-06T11:45:05;0.70;;;0.47;;
20397;SDS011;10358;49.590;11.030;2023-08-06T11:47:40;1.50;;;0.60;;
20397;SDS011;10358;49.590;11.030;2023-08-06T11:50:08;0.25;;;0.25;;
20397;SDS011;10358;49.590;11.030;2023-08-06T11:52:49;1.52;;;0.50;;
20397;SDS011;10358;49.590;11.030;2023-08-06T11:55:22;0.85;;;0.50;;
20397;SDS011;10358;49.590;11.030;2023-08-06T11:57:51;0.30;;;0.30;;
20397;SDS011;10358;49.590;11.030;2023-08-06T12:00:19;0.63;;;0.60;;
20397;SDS011;10358;49.590;11.030;2023-08-06T12:02:48;0.80;;;0.70;;
20397;SDS011;10358;49.590;11.030;2023-08-06T12:05:16;0.60;;;0.60;;
20397;SDS011;10358;49.590;11.030;2023-08-06T12:07:46;1.05;;;0.88;;
20397;SDS011;10358;49.590;11.030;2023-08-06T12:10:13;0.43;;;0.43;;
20397;SDS011;10358;49.590;11.030;2023-08-06T12:12:39;0.50;;;0.40;;
20397;SDS011;10358;49.590;11.030;2023-08-06T12:15:06;0.55;;;0.50;;
20397;SDS011;10358;49.590;11.030;2023-08-06T12:17:33;0.77;;;0.40;;
20397;SDS011;10358;49.590;11.030;2023-08-06T12:19:59;0.98;;;0.35;;
20397;SDS011;10358;49.590;11.030;2023-08-06T12:22:25;0.70;;;0.70;;
20397;SDS011;10358;49.590;11.030;2023-08-06T12:24:51;0.57;;;0.50;;
20397;SDS011;10358;49.590;11.030;2023-08-06T12:27:16;4.28;;;0.50;;
20397;SDS011;10358;49.590;11.030;2023-08-06T12:29:46;1.17;;;0.50;;
20397;SDS011;10358;49.590;11.030;2023-08-06T12:32:13;0.80;;;0.50;;
20397;SDS011;10358;49.590;11.030;2023-08-06T12:34:39;0.95;;;0.63;;
20397;SDS011;10358;49.590;11.030;2023-08-06T12:37:06;0.95;;;0.60;;
20397;SDS011;10358;49.590;11.030;2023-08-06T12:39:35;0.63;;;0.57;;
20397;SDS011;10358;49.590;11.030;2023-08-06T12:42:02;0.50;;;0.50;;
20397;SDS011;10358;49.590;11.030;2023-08-06T12:44:28;0.90;;;0.55;;
20397;SDS011;10358;49.590;11.030;2023-08-06T12:46:54;0.80;;;0.50;;
20397;SDS011;10358;49.590;11.030;2023-08-06T12:49:20;0.80;;;0.60;;
20397;SDS011;10358;49.590;11.030;2023-08-06T12:51:46;0.82;;;0.60;;
20397;SDS011;10358;49.590;11.030;2023-08-06T12:54:16;0.95;;;0.43;;
20397;SDS011;10358;49.590;11.030;2023-08-06T12:56:43;2.03;;;0.50;;
20397;SDS011;10358;49.590;11.030;2023-08-06T12:59:09;2.28;;;0.60;;
20397;SDS011;10358;49.590;11.030;2023-08-06T13:01:35;1.35;;;0.70;;
20397;SDS011;10358;49.590;11.030;2023-08-06T13:04:02;0.70;;;0.52;;
20397;SDS011;10358;49.590;11.030;2023-08-06T13:06:27;0.77;;;0.50;;
20397;SDS011;10358;49.590;11.030;2023-08-06T13:08:53;0.95;;;0.40;;
20397;SDS011;10358;49.590;11.030;2023-08-06T13:11:18;0.65;;;0.40;;
20397;SDS011;10358;49.590;11.030;2023-08-06T13:13:44;0.68;;;0.40;;
20397;SDS011;10358;49.590;11.030;2023-08-06T13:16:10;0.20;;;0.20;;
20397;SDS011;10358;49.590;11.030;2023-08-06T13:18:35;0.52;;;0.25;;
20397;SDS011;10358;49.590;11.030;2023-08-06T13:21:01;0.32;;;0.32;;
20397;SDS011;10358;49.590;11.030;2023-08-06T13:23:26;0.50;;;0.40;;
20397;SDS011;10358;49.590;11.030;2023-08-06T13:25:52;0.25;;;0.25;;
20397;SDS011;10358;49.590;11.030;2023-08-06T13:28:18;0.40;;;0.40;;
20397;SDS011;10358;49.590;11.030;2023-08-06T13:30:44;1.70;;;0.30;;
20397;SDS011;10358;49.590;11.030;2023-08-06T13:33:10;0.30;;;0.30;;
20397;SDS011;10358;49.590;11.030;2023-08-06T13:35:37;0.40;;;0.40;;
20397;SDS011;10358;49.590;11.030;2023-08-06T13:38:03;0.25;;;0.22;;
20397;SDS011;10358;49.590;11.030;2023-08-06T13:40:30;0.20;;;0.20;;
20397;SDS011;10358;49.590;11.030;2023-08-06T13:42:57;0.50;;;0.30;;
20397;SDS011;10358;49.590;11.030;2023-08-06T13:45:23;0.20;;;0.20;;
20397;SDS011;10358;49.590;11.030;2023-08-06T13:47:49;0.38;;;0.30;;
20397;SDS011;10358;49.590;11.030;2023-08-06T13:50:14;0.35;;;0.30;;
20397;SDS011;10358;49.590;11.030;2023-08-06T13:52:40;0.20;;;0.20;;
20397;SDS011;10358;49.590;11.030;2023-08-06T13:55:06;1.77;;;0.17;;
20397;SDS011;10358;49.590;11.030;2023-08-06T13:57:32;0.73;;;0.17;;
20397;SDS011;10358;49.590;11.030;2023-08-06T13:59:59;0.13;;;0.10;;
20397;SDS011;10358;49.590;11.030;2023-08-06T14:02:24;0.63;;;0.28;;
20397;SDS011;10358;49.590;11.030;2023-08-06T14:04:51;0.57;;;0.15;;
20397;SDS011;10358;49.590;11.030;2023-08-06T14:07:18;0.30;;;0.25;;
20397;SDS011;10358;49.590;11.030;2023-08-06T14:09:43;1.20;;;0.30;;
20397;SDS011;10358;49.590;11.030;2023-08-06T14:12:09;0.52;;;0.30;;
20397;SDS011;10358;49.590;11.030;2023-08-06T14:14:35;0.30;;;0.30;;
20397;SDS011;10358;49.590;11.030;2023-08-06T14:17:01;1.83;;;1.08;;
20397;SDS011;10358;49.590;11.030;2023-08-06T14:19:26;0.30;;;0.30;;
20397;SDS011;10358;49.590;11.030;2023-08-06T14:21:53;0.30;;;0.30;;
20397;SDS011;10358;49.590;11.030;2023-08-06T14:24:20;0.35;;;0.32;;
20397;SDS011;10358;49.590;11.030;2023-08-06T14:26:46;0.22;;;0.22;;
20397;SDS011;10358;49.590;11.030;2023-08-06T14:29:11;1.35;;;0.40;;
20397;SDS011;10358;49.590;11.030;2023-08-06T14:31:38;0.70;;;0.32;;
20397;SDS011;10358;49.590;11.030;2023-08-06T14:34:04;0.50;;;0.47;;
20397;SDS011;10358;49.590;11.030;2023-08-06T14:36:29;2.92;;;0.80;;
20397;SDS011;10358;49.590;11.030;2023-08-06T14:38:55;1.00;;;0.90;;
20397;SDS011;10358;49.590;11.030;2023-08-06T14:41:20;1.70;;;0.40;;
20397;SDS011;10358;49.590;11.030;2023-08-06T14:43:46;1.02;;;0.60;;
20397;SDS011;10358;49.590;11.030;2023-08-06T14:46:12;0.65;;;0.52;;
20397;SDS011;10358;49.590;11.030;2023-08-06T14:48:37;2.00;;;0.60;;
20397;SDS011;10358;49.590;11.030;2023-08-06T14:51:04;0.63;;;0.60;;